Time;durP1;ratioP1;P1;durP2;ratioP2;P2;SDS_P1;SDS_P2;PMS_P1;PMS_P2;Temp;Humidity;BMP_temperature;BMP_pressure;BME280_temperature;BME280_humidity;BME280_pressure;Samples;Min_cycle;Max_cycle;Signal;HPM_P1;HPM_P2
2021/11/05 00:00:59;;;;;;;;;;;7.40;99.90;;;;;;5091524;28;20028;-76
2021/11/05 00:03:25;;;;;;;1.92;1.00;;;7.40;99.90;;;;;;5090253;28;20365;-76
2021/11/05 00:05:52;;;;;;;;;;;7.40;99.90;;;;;;5090446;28;20032;-76
2021/11/05 00:08:18;;;;;;;4.07;1.17;;;7.40;99.90;;;;;;5089771;28;19915;-78
2021/11/05 00:10:44;;;;;;;4.05;1.50;;;7.30;99.90;;;;;;5089852;28;20547;-75
2021/11/05 00:13:11;;;;;;;;;;;7.30;99.90;;;;;;5089537;28;20062;-76
2021/11/05 00:15:37;;;;;;;3.20;1.65;;;7.20;99.90;;;;;;5072521;28;19998;-76
2021/11/05 00:18:04;;;;;;;3.38;1.45;;;7.20;99.90;;;;;;5090988;28;20526;-76
2021/11/05 00:20:30;;;;;;;5.10;1.90;;;7.00;99.90;;;;;;5090234;28;20032;-76
2021/11/05 00:22:55;;;;;;;;;;;7.10;99.90;;;;;;5089701;28;20038;-76
2021/11/05 00:25:22;;;;;;;4.22;2.35;;;7.00;99.90;;;;;;5089370;28;20437;-76
2021/11/05 00:27:48;;;;;;;6.18;2.80;;;6.90;99.90;;;;;;5090096;28;20027;-76
2021/11/05 00:30:14;;;;;;;;;;;6.80;99.90;;;;;;5090421;28;20488;-76
2021/11/05 00:32:41;;;;;;;6.47;3.30;;;6.80;99.90;;;;;;5090736;28;19919;-75
2021/11/05 00:35:07;;;;;;;12.30;3.42;;;6.70;99.90;;;;;;5089066;28;20308;-75
2021/11/05 00:37:33;;;;;;;7.45;4.22;;;6.70;99.90;;;;;;5089768;28;20066;-76
2021/11/05 00:39:59;;;;;;;;;;;6.70;99.90;;;;;;5073126;28;20109;-76
2021/11/05 00:42:24;;;;;;;10.70;3.65;;;6.60;99.90;;;;;;5090601;28;19918;-76
2021/11/05 00:44:50;;;;;;;;;;;6.60;99.90;;;;;;5090196;28;20024;-76
2021/11/05 00:47:16;;;;;;;11.57;3.72;;;6.50;99.90;;;;;;5091581;28;20431;-76
2021/11/05 00:49:43;;;;;;;9.50;3.38;;;6.50;99.90;;;;;;5089803;28;20040;-76
2021/11/05 00:52:09;;;;;;;9.93;3.90;;;6.50;99.90;;;;;;5089568;28;20121;-76
2021/11/05 00:54:35;;;;;;;7.43;3.30;;;6.50;99.90;;;;;;5091719;28;20031;-75
2021/11/05 00:57:01;;;;;;;;;;;6.40;99.90;;;;;;5091906;28;20028;-76
2021/11/05 00:59:27;;;;;;;8.63;3.10;;;6.40;99.90;;;;;;5089645;28;19951;-76
2021/11/05 01:01:52;;;;;;;;;;;6.40;99.90;;;;;;5090529;28;20055;-75
2021/11/05 01:04:18;;;;;;;6.32;3.13;;;6.40;99.90;;;;;;5092129;28;20006;-77
2021/11/05 01:06:43;;;;;;;;;;;6.30;99.90;;;;;;5090359;28;20370;-77
2021/11/05 01:09:09;;;;;;;14.93;2.72;;;6.30;99.90;;;;;;5090472;28;19999;-76
2021/11/05 01:11:35;;;;;;;;;;;6.30;99.90;;;;;;5090266;28;20040;-77
2021/11/05 01:14:01;;;;;;;4.70;1.48;;;6.20;99.90;;;;;;5089523;28;20006;-76
2021/11/05 01:16:26;;;;;;;5.90;1.90;;;6.30;99.90;;;;;;5089989;28;20020;-76
2021/11/05 01:18:52;;;;;;;;;;;6.30;99.90;;;;;;5089193;28;20039;-77
2021/11/05 01:21:18;;;;;;;5.90;2.08;;;6.30;99.90;;;;;;5122991;27;19931;-76
2021/11/05 01:23:43;;;;;;;;;;;6.20;99.90;;;;;;5091630;28;20032;-76
2021/11/05 01:26:10;;;;;;;5.72;2.38;;;6.20;99.90;;;;;;5090299;28;19964;-77
2021/11/05 01:28:35;;;;;;;6.90;3.28;;;6.10;99.90;;;;;;5089921;28;20047;-76
2021/11/05 01:31:01;;;;;;;;;;;6.00;99.90;;;;;;5090716;28;20070;-76
2021/11/05 01:33:27;;;;;;;8.45;2.80;;;5.90;99.90;;;;;;5089976;28;19916;-77
2021/11/05 01:35:52;;;;;;;;;;;5.90;99.90;;;;;;5090790;28;20024;-76
2021/11/05 01:38:18;;;;;;;5.18;2.08;;;5.80;99.90;;;;;;5092507;28;20300;-76
2021/11/05 01:40:44;;;;;;;;;;;5.80;99.90;;;;;;5092323;28;20471;-76
2021/11/05 01:43:11;;;;;;;11.35;2.90;;;5.80;99.90;;;;;;5091273;28;19908;-77
2021/11/05 01:45:39;;;;;;;7.03;2.50;;;5.70;99.90;;;;;;5092595;28;20452;-77
2021/11/05 01:48:05;;;;;;;11.35;4.22;;;5.70;99.90;;;;;;5094107;28;20093;-77
2021/11/05 01:50:30;;;;;;;;;;;5.80;99.90;;;;;;5088544;28;20028;-77
2021/11/05 01:52:56;;;;;;;10.70;2.42;;;5.80;99.90;;;;;;5086492;28;19925;-77
2021/11/05 01:55:22;;;;;;;12.60;2.85;;;5.80;99.90;;;;;;5087190;28;20013;-76
2021/11/05 01:57:48;;;;;;;9.90;2.05;;;5.70;99.90;;;;;;5087293;28;20768;-77
2021/11/05 02:00:16;;;;;;;;;;;5.90;99.90;;;;;;5087227;28;20036;-76
2021/11/05 02:02:42;;;;;;;2.10;0.60;;;5.90;99.90;;;;;;5086629;28;19957;-75
2021/11/05 02:05:07;;;;;;;;;;;6.00;99.90;;;;;;5086976;28;20028;-77
2021/11/05 02:07:35;;;;;;;5.43;1.02;;;6.20;99.90;;;;;;5088086;28;19908;-77
2021/11/05 02:10:06;;;;;;;6.32;0.95;;;6.30;99.90;;;;;;5087834;28;20430;-76
2021/11/05 02:12:32;;;;;;;8.27;1.42;;;6.30;99.90;;;;;;5087616;28;20082;-77
2021/11/05 02:14:58;;;;;;;;;;;6.30;99.90;;;;;;5088502;28;20107;-77
2021/11/05 02:17:24;;;;;;;1.20;0.60;;;6.30;99.90;;;;;;5087643;28;19984;-77
2021/11/05 02:19:52;;;;;;;1.98;0.63;;;6.30;99.90;;;;;;5086156;28;20032;-77
2021/11/05 02:22:19;;;;;;;4.57;1.50;;;6.30;99.90;;;;;;5087192;28;20111;-77
2021/11/05 02:24:45;;;;;;;1.63;0.68;;;6.30;99.90;;;;;;5087253;28;20036;-77
2021/11/05 02:27:11;;;;;;;4.10;0.75;;;6.30;99.90;;;;;;5086072;28;20020;-77
2021/11/05 02:29:36;;;;;;;;;;;6.30;99.90;;;;;;5088071;28;20035;-77
2021/11/05 02:32:04;;;;;;;2.65;0.77;;;6.30;99.90;;;;;;5087434;28;19916;-76
2021/11/05 02:34:32;;;;;;;3.58;1.02;;;6.30;99.90;;;;;;5090194;28;20028;-77
2021/11/05 02:36:58;;;;;;;3.40;0.82;;;6.40;99.90;;;;;;5092678;28;20032;-77
2021/11/05 02:39:24;;;;;;;4.82;1.38;;;6.30;99.90;;;;;;5090591;28;20020;-76
2021/11/05 02:41:52;;;;;;;6.45;2.00;;;6.30;99.90;;;;;;5092631;28;20551;-77
2021/11/05 02:44:18;;;;;;;5.30;1.70;;;6.30;99.90;;;;;;5074951;28;20024;-75
2021/11/05 02:46:44;;;;;;;3.45;1.38;;;6.30;99.90;;;;;;5090852;28;20020;-76
2021/11/05 02:49:13;;;;;;;;;;;6.30;99.90;;;;;;5091552;28;20024;-77
2021/11/05 02:51:39;;;;;;;3.00;0.80;;;6.30;99.90;;;;;;5092864;28;19916;-77
2021/11/05 02:54:05;;;;;;;;;;;6.30;99.90;;;;;;5093488;28;20089;-77
2021/11/05 02:56:31;;;;;;;4.95;0.80;;;6.30;99.90;;;;;;5093289;28;19904;-77
2021/11/05 02:58:58;;;;;;;;;;;6.30;99.90;;;;;;5092590;28;20545;-77
2021/11/05 03:01:24;;;;;;;;;;;6.30;99.90;;;;;;5094620;28;19934;-76
2021/11/05 03:03:50;;;;;;;3.55;0.82;;;6.30;99.90;;;;;;5093067;28;19904;-76
2021/11/05 03:06:16;;;;;;;;;;;6.50;99.90;;;;;;5092849;28;20493;-77
2021/11/05 03:08:54;;;;;;;2.50;0.90;;;6.30;99.90;;;;;;5088573;28;19907;-76
2021/11/05 03:11:23;;;;;;;1.92;0.85;;;6.20;99.90;;;;;;5088289;28;20028;-77
2021/11/05 03:13:49;;;;;;;6.18;2.05;;;6.50;99.90;;;;;;5089554;28;20052;-76
2021/11/05 03:16:14;;;;;;;;;;;6.20;99.90;;;;;;5092831;28;20526;-76
2021/11/05 03:18:42;;;;;;;5.10;2.20;;;6.20;99.90;;;;;;5092856;28;19956;-76
2021/11/05 03:21:08;;;;;;;3.88;1.52;;;6.10;99.90;;;;;;5090706;28;20016;-77
2021/11/05 03:23:34;;;;;;;4.53;2.40;;;6.10;99.90;;;;;;5093177;28;20110;-77
2021/11/05 03:26:00;;;;;;;4.57;2.10;;;6.10;99.90;;;;;;5091119;28;20206;-76
2021/11/05 03:28:26;;;;;;;;;;;6.00;99.90;;;;;;5092798;28;20099;-75
2021/11/05 03:30:51;;;;;;;4.43;2.17;;;6.00;99.90;;;;;;5093224;28;19912;-76
2021/11/05 03:33:17;;;;;;;;;;;6.00;99.90;;;;;;5091095;28;20492;-77
2021/11/05 03:35:43;;;;;;;4.30;1.65;;;5.90;99.90;;;;;;5092596;28;19908;-77
2021/11/05 03:38:08;;;;;;;;;;;5.80;99.90;;;;;;5091867;28;20032;-76
2021/11/05 03:40:36;;;;;;;4.00;1.38;;;5.90;99.90;;;;;;5091767;28;19914;-77
2021/11/05 03:43:02;;;;;;;3.92;1.77;;;6.00;99.90;;;;;;5092472;28;20026;-76
2021/11/05 03:45:28;;;;;;;4.03;1.13;;;5.90;99.90;;;;;;5092457;28;20032;-77
2021/11/05 03:47:53;;;;;;;;;;;5.70;99.90;;;;;;5093797;28;20028;-76
2021/11/05 03:50:19;;;;;;;2.45;0.85;;;5.70;99.90;;;;;;5093142;28;19955;-77
2021/11/05 03:52:45;;;;;;;;;;;5.70;99.90;;;;;;5093059;28;20071;-77
2021/11/05 03:55:11;;;;;;;5.05;1.00;;;5.80;99.90;;;;;;5092346;28;19934;-76
2021/11/05 03:57:36;;;;;;;;;;;5.80;99.90;;;;;;5091290;28;20082;-77
2021/11/05 04:00:08;;;;;;;1.90;0.95;;;5.90;99.90;;;;;;5091278;28;20542;-77
2021/11/05 04:02:35;;;;;;;3.60;0.70;;;5.90;99.90;;;;;;5089574;28;20020;-77
2021/11/05 04:05:01;;;;;;;1.50;0.50;;;6.00;99.90;;;;;;5093110;28;20028;-77
2021/11/05 04:07:27;;;;;;;;;;;6.00;99.90;;;;;;5093426;28;20032;-77
2021/11/05 04:09:52;;;;;;;1.88;0.50;;;6.00;99.90;;;;;;5092861;28;20288;-77
2021/11/05 04:12:19;;;;;;;;;;;5.90;99.90;;;;;;5092332;28;20048;-77
2021/11/05 04:14:44;;;;;;;0.98;0.57;;;5.80;99.90;;;;;;5091837;28;19912;-76
2021/11/05 04:17:10;;;;;;;;;;;5.80;99.90;;;;;;5093714;28;20521;-78
2021/11/05 04:19:36;;;;;;;7.72;0.40;;;5.80;99.90;;;;;;5093977;28;19911;-77
2021/11/05 04:22:01;;;;;;;;;;;5.70;99.90;;;;;;5092213;28;20513;-77
2021/11/05 04:24:27;;;;;;;3.85;0.52;;;5.60;99.90;;;;;;5094682;28;20426;-77
2021/11/05 04:26:52;;;;;;;;;;;5.60;99.90;;;;;;5095715;28;20039;-78
2021/11/05 04:29:19;;;;;;;7.65;3.40;;;5.50;99.90;;;;;;5094814;28;19908;-77
2021/11/05 04:31:45;;;;;;;8.10;3.20;;;5.50;99.90;;;;;;5088665;28;20031;-77
2021/11/05 04:34:11;;;;;;;;;;;5.40;99.90;;;;;;5089463;28;20043;-76
2021/11/05 04:36:37;;;;;;;11.35;5.55;;;5.30;99.90;;;;;;5088775;28;19994;-77
2021/11/05 04:39:04;;;;;;;9.10;4.25;;;5.30;99.90;;;;;;5089042;28;20036;-76
2021/11/05 04:41:30;;;;;;;11.55;3.58;;;5.20;99.90;;;;;;5088402;28;20040;-76
2021/11/05 04:43:55;;;;;;;;;;;5.20;99.90;;;;;;5088796;28;20077;-78
2021/11/05 04:46:21;;;;;;;3.15;1.00;;;5.30;99.90;;;;;;5088405;28;19904;-76
2021/11/05 04:48:46;;;;;;;;;;;5.40;99.90;;;;;;5087418;28;20156;-77
2021/11/05 04:51:12;;;;;;;23.42;9.07;;;5.40;99.90;;;;;;5088361;28;20261;-77
2021/11/05 04:53:38;;;;;;;;;;;5.50;99.90;;;;;;5089219;28;20040;-76
2021/11/05 04:56:04;;;;;;;21.15;6.63;;;5.60;99.90;;;;;;5119778;27;19950;-77
2021/11/05 04:58:30;;;;;;;12.82;3.10;;;5.50;99.90;;;;;;5087188;28;20038;-76
2021/11/05 05:00:56;;;;;;;12.43;3.85;;;5.50;99.90;;;;;;5088065;28;20027;-77
2021/11/05 05:03:22;;;;;;;;;;;5.60;99.90;;;;;;5088623;28;20032;-76
2021/11/05 05:05:47;;;;;;;7.90;2.15;;;5.60;99.90;;;;;;5089007;28;19908;-76
2021/11/05 05:08:13;;;;;;;8.10;2.85;;;5.60;99.90;;;;;;5088008;28;20480;-75
2021/11/05 05:10:39;;;;;;;;;;;5.60;99.90;;;;;;5088221;28;20039;-76
2021/11/05 05:13:04;;;;;;;6.85;2.42;;;5.50;99.90;;;;;;5088260;28;19916;-76
2021/11/05 05:15:30;;;;;;;;;;;5.60;99.90;;;;;;5088795;28;20100;-76
2021/11/05 05:17:56;;;;;;;14.20;3.22;;;5.60;99.90;;;;;;5120618;27;19953;-76
2021/11/05 05:20:22;;;;;;;;;;;5.70;99.90;;;;;;5088063;28;20032;-76
2021/11/05 05:22:48;;;;;;;20.15;7.50;;;5.70;99.90;;;;;;5089261;28;19904;-77
2021/11/05 05:25:16;;;;;;;20.02;7.60;;;5.70;99.90;;;;;;5087521;28;20705;-76
2021/11/05 05:27:43;;;;;;;23.95;9.02;;;5.80;99.90;;;;;;5087256;28;20386;-75
2021/11/05 05:30:12;;;;;;;17.30;6.60;;;5.70;99.90;;;;;;5089273;28;20025;-76
2021/11/05 05:32:42;;;;;;;6.35;1.95;;;5.70;99.90;;;;;;5089020;28;20130;-77
2021/11/05 05:35:08;;;;;;;5.50;1.83;;;5.70;99.90;;;;;;5071438;28;20027;-77
2021/11/05 05:37:34;;;;;;;;;;;5.70;99.90;;;;;;5089421;28;20115;-76
2021/11/05 05:40:00;;;;;;;6.18;2.30;;;5.70;99.90;;;;;;5088970;28;19930;-77
2021/11/05 05:42:25;;;;;;;;;;;5.60;99.90;;;;;;5089829;28;20479;-76
2021/11/05 05:44:51;;;;;;;8.65;3.97;;;5.60;99.90;;;;;;5089278;28;19914;-76
2021/11/05 05:47:16;;;;;;;;;;;5.60;99.90;;;;;;5088456;28;20030;-76
2021/11/05 05:49:42;;;;;;;10.07;4.03;;;5.50;99.90;;;;;;5087638;28;19908;-76
2021/11/05 05:52:08;;;;;;;;;;;5.50;99.90;;;;;;5087552;28;20103;-77
2021/11/05 05:54:35;;;;;;;8.82;3.75;;;5.40;99.90;;;;;;5087774;28;20394;-77
2021/11/05 05:57:01;;;;;;;11.82;3.78;;;5.40;99.90;;;;;;5087696;28;20059;-76
2021/11/05 05:59:27;;;;;;;;;;;5.50;99.90;;;;;;5087462;28;20055;-75
2021/11/05 06:01:53;;;;;;;11.70;4.93;;;5.40;99.90;;;;;;5087539;28;19908;-77
2021/11/05 06:04:21;;;;;;;8.15;5.03;;;5.30;99.90;;;;;;5089356;28;20036;-77
2021/11/05 06:06:47;;;;;;;11.75;5.85;;;5.30;99.90;;;;;;5087692;28;20028;-77
2021/11/05 06:09:13;;;;;;;;;;;5.30;99.90;;;;;;5088866;28;20043;-77
2021/11/05 06:11:38;;;;;;;11.60;5.85;;;5.30;99.90;;;;;;5122416;27;20114;-77
2021/11/05 06:14:04;;;;;;;;;;;5.40;99.90;;;;;;5088803;28;20055;-77
2021/11/05 06:16:29;;;;;;;12.38;5.40;;;5.50;99.90;;;;;;5089287;28;19904;-76
2021/11/05 06:18:55;;;;;;;;;;;5.80;99.90;;;;;;5089529;28;20112;-77
2021/11/05 06:21:24;;;;;;;10.38;4.38;;;5.70;99.90;;;;;;5088461;28;19969;-76
2021/11/05 06:23:51;;;;;;;4.65;2.22;;;5.80;99.90;;;;;;5090016;28;20016;-76
2021/11/05 06:26:17;;;;;;;4.43;1.65;;;5.90;99.90;;;;;;5090491;28;20024;-77
2021/11/05 06:28:42;;;;;;;;;;;6.00;99.90;;;;;;5090414;28;20032;-77
2021/11/05 06:31:08;;;;;;;4.22;1.63;;;6.20;99.90;;;;;;5091848;28;19908;-77
2021/11/05 06:33:34;;;;;;;;;;;6.30;99.90;;;;;;5090715;28;20043;-77
2021/11/05 06:35:59;;;;;;;13.77;6.03;;;6.50;99.90;;;;;;5091815;28;19962;-77
2021/11/05 06:38:25;;;;;;;;;;;6.50;99.90;;;;;;5091021;28;20424;-77
2021/11/05 06:40:51;;;;;;;14.88;9.02;;;6.60;99.90;;;;;;5090203;28;20333;-76
2021/11/05 06:43:16;;;;;;;;;;;6.70;99.90;;;;;;5090024;28;20028;-76
2021/11/05 06:45:42;;;;;;;13.23;7.20;;;6.80;99.90;;;;;;5090288;28;19908;-76
2021/11/05 06:48:08;;;;;;;;;;;7.00;99.90;;;;;;5092452;28;20039;-77
2021/11/05 06:50:33;;;;;;;12.90;6.80;;;6.90;99.90;;;;;;5089959;28;20492;-77
2021/11/05 06:52:59;;;;;;;;;;;7.00;99.90;;;;;;5091288;28;20039;-76
2021/11/05 06:55:25;;;;;;;11.02;5.50;;;7.00;99.90;;;;;;5089462;28;20681;-75
2021/11/05 06:57:50;;;;;;;;;;;7.20;99.90;;;;;;5092798;28;20024;-77
2021/11/05 07:00:16;;;;;;;9.75;5.32;;;7.30;99.90;;;;;;5091777;28;19904;-77
2021/11/05 07:02:41;;;;;;;;;;;7.30;99.90;;;;;;5090456;28;20107;-77
2021/11/05 07:05:12;;;;;;;10.52;5.88;;;7.60;99.90;;;;;;5093555;28;19904;-78
2021/11/05 07:07:39;;;;;;;12.35;5.38;;;7.50;99.90;;;;;;5088502;28;20028;-77
2021/11/05 07:10:06;;;;;;;7.47;4.50;;;7.60;99.90;;;;;;5089616;28;20035;-76
2021/11/05 07:12:32;;;;;;;9.55;4.82;;;7.70;99.90;;;;;;5085607;28;20060;-76
2021/11/05 07:14:58;;;;;;;;;;;7.90;99.90;;;;;;5087139;28;20031;-76
2021/11/05 07:17:24;;;;;;;16.75;4.72;;;8.00;99.90;;;;;;5086647;28;19919;-77
2021/11/05 07:19:49;;;;;;;;;;;8.20;99.90;;;;;;5089137;28;20420;-77
2021/11/05 07:22:17;;;;;;;7.43;3.88;;;8.30;99.90;;;;;;5091329;28;20007;-76
2021/11/05 07:24:44;;;;;;;6.90;3.58;;;8.40;99.90;;;;;;5090133;28;20027;-76
2021/11/05 07:27:12;;;;;;;14.15;3.97;;;8.50;99.90;;;;;;5090194;28;20036;-77
2021/11/05 07:29:38;;;;;;;10.23;2.80;;;8.70;99.90;;;;;;5089522;28;20499;-76
2021/11/05 07:32:08;;;;;;;11.40;3.47;;;8.80;99.90;;;;;;5089003;28;20027;-76
2021/11/05 07:34:36;;;;;;;12.95;4.68;;;9.20;99.90;;;;;;5089844;28;20024;-79
2021/11/05 07:37:08;;;;;;;18.17;13.55;;;9.80;99.90;;;;;;5088778;28;20028;-78
2021/11/05 07:39:37;;;;;;;18.35;10.25;;;10.30;99.90;;;;;;5089133;28;20040;-76
2021/11/05 07:42:03;;;;;;;8.82;4.70;;;10.80;99.90;;;;;;5087598;28;20028;-80
2021/11/05 07:44:28;;;;;;;;;;;11.40;99.90;;;;;;5088788;28;20047;-79
2021/11/05 07:46:54;;;;;;;4.60;2.33;;;11.80;99.90;;;;;;5086904;28;19918;-80
2021/11/05 07:49:19;;;;;;;;;;;12.10;99.90;;;;;;5089076;28;20028;-79
2021/11/05 07:51:45;;;;;;;3.72;2.00;;;12.20;99.90;;;;;;5088839;28;19951;-78
2021/11/05 07:54:11;;;;;;;;;;;12.40;99.90;;;;;;5087794;28;20169;-78
2021/11/05 07:56:37;;;;;;;1.95;0.82;;;12.70;99.90;;;;;;5087104;28;20002;-78
2021/11/05 07:59:04;;;;;;;2.30;0.70;;;13.10;99.90;;;;;;5088035;28;20028;-77
2021/11/05 08:01:30;;;;;;;0.90;0.35;;;13.60;99.90;;;;;;5088930;28;20024;-79
2021/11/05 08:03:55;;;;;;;;;;;14.10;99.90;;;;;;5089508;28;20028;-80
2021/11/05 08:06:21;;;;;;;4.45;0.38;;;14.20;98.40;;;;;;5088928;28;19923;-76
2021/11/05 08:08:46;;;;;;;;;;;14.20;99.20;;;;;;5087752;28;20032;-76
2021/11/05 08:11:13;;;;;;;1.63;0.32;;;14.20;97.30;;;;;;5088641;28;19908;-78
2021/11/05 08:13:39;;;;;;;2.67;0.50;;;14.10;98.10;;;;;;5088788;28;20048;-76
2021/11/05 08:16:05;;;;;;;0.98;0.40;;;14.10;97.90;;;;;;5088902;28;20063;-76
2021/11/05 08:18:30;;;;;;;;;;;14.10;97.30;;;;;;5088645;28;20109;-76
2021/11/05 08:20:56;;;;;;;0.75;0.30;;;14.10;96.20;;;;;;5086890;28;20394;-78
2021/11/05 08:23:22;;;;;;;;;;;14.10;97.40;;;;;;5087146;28;20089;-78
2021/11/05 08:25:47;;;;;;;0.30;0.20;;;14.00;97.80;;;;;;5088323;28;20101;-80
2021/11/05 08:28:15;;;;;;;0.52;0.28;;;14.20;99.30;;;;;;5087478;28;20024;-80
2021/11/05 08:30:41;;;;;;;0.73;0.30;;;14.60;97.60;;;;;;5088031;28;20024;-79
2021/11/05 08:33:07;;;;;;;0.40;0.20;;;14.80;94.60;;;;;;5088763;28;20454;-79
2021/11/05 08:35:33;;;;;;;1.13;0.20;;;14.90;93.60;;;;;;5087999;28;20028;-79
2021/11/05 08:38:00;;;;;;;1.02;0.43;;;15.00;89.10;;;;;;5088118;28;20110;-81
2021/11/05 08:40:26;;;;;;;0.75;0.28;;;15.00;87.30;;;;;;5088051;28;20579;-78
2021/11/05 08:42:52;;;;;;;0.85;0.28;;;14.90;88.20;;;;;;5088124;28;20032;-77
2021/11/05 08:45:18;;;;;;;1.13;0.30;;;14.90;88.80;;;;;;5087957;28;20054;-76
2021/11/05 08:47:44;;;;;;;2.10;0.40;;;14.80;87.10;;;;;;5088346;28;20028;-79
2021/11/05 08:50:14;;;;;;;0.60;0.30;;;14.60;87.00;;;;;;5086777;28;20504;-76
2021/11/05 08:52:40;;;;;;;2.30;0.40;;;14.50;87.30;;;;;;5086167;28;20125;-78
2021/11/05 08:55:07;;;;;;;0.55;0.20;;;14.40;85.30;;;;;;5086734;28;20024;-80
2021/11/05 08:57:34;;;;;;;0.30;0.20;;;14.30;85.30;;;;;;5087735;28;20020;-77
2021/11/05 09:00:02;;;;;;;0.63;0.20;;;14.20;87.10;;;;;;5086961;28;20073;-76
2021/11/05 09:02:28;;;;;;;0.95;0.20;;;14.10;85.30;;;;;;5087022;28;20093;-79
2021/11/05 09:04:54;;;;;;;;;;;14.00;86.90;;;;;;5088005;28;20024;-78
2021/11/05 09:07:20;;;;;;;0.90;0.40;;;14.00;84.20;;;;;;5086092;28;19908;-78
2021/11/05 09:09:45;;;;;;;;;;;14.00;85.30;;;;;;5086377;28;20042;-77
2021/11/05 09:12:12;;;;;;;3.75;0.35;;;14.00;88.90;;;;;;5087723;28;19920;-77
2021/11/05 09:14:38;;;;;;;1.05;0.20;;;13.90;90.50;;;;;;5087469;28;20039;-77
2021/11/05 09:17:03;;;;;;;;;;;13.90;90.90;;;;;;5086395;28;20028;-77
2021/11/05 09:19:29;;;;;;;0.60;0.28;;;13.90;88.60;;;;;;5086144;28;19965;-80
2021/11/05 09:21:54;;;;;;;;;;;13.90;88.20;;;;;;5085919;28;20024;-77
2021/11/05 09:24:20;;;;;;;2.92;0.20;;;14.00;86.90;;;;;;5086969;28;19915;-77
2021/11/05 09:26:46;;;;;;;;;;;14.10;83.10;;;;;;5087728;28;20035;-80
2021/11/05 09:29:13;;;;;;;0.20;0.20;;;14.20;81.10;;;;;;5087223;28;19908;-79
2021/11/05 09:31:39;;;;;;;0.70;0.25;;;14.40;81.40;;;;;;5087225;28;20051;-77
2021/11/05 09:34:05;;;;;;;0.30;0.20;;;14.60;76.70;;;;;;5086967;28;20341;-79
2021/11/05 09:36:30;;;;;;;;;;;14.60;75.30;;;;;;5087357;28;20484;-77
2021/11/05 09:38:56;;;;;;;0.47;0.30;;;14.50;72.50;;;;;;5086968;28;20375;-77
2021/11/05 09:41:22;;;;;;;;;;;14.40;74.10;;;;;;5087756;28;20479;-78
2021/11/05 09:43:47;;;;;;;0.30;0.20;;;14.40;75.10;;;;;;5085274;28;19908;-76
2021/11/05 09:46:13;;;;;;;;;;;14.50;75.20;;;;;;5086418;28;20078;-78
2021/11/05 09:48:39;;;;;;;0.93;0.20;;;14.60;75.80;;;;;;5085223;28;19998;-78
2021/11/05 09:51:08;;;;;;;0.40;0.28;;;14.70;74.80;;;;;;5086670;28;20038;-77
2021/11/05 09:53:37;;;;;;;0.55;0.28;;;14.70;73.80;;;;;;5086692;28;20071;-79
2021/11/05 09:56:05;;;;;;;0.50;0.10;;;14.80;72.80;;;;;;5087144;28;20518;-79
2021/11/05 09:58:31;;;;;;;0.47;0.20;;;14.70;70.60;;;;;;5068738;28;20024;-77
2021/11/05 10:00:57;;;;;;;0.52;0.20;;;14.80;71.20;;;;;;5087116;28;20024;-78
2021/11/05 10:03:23;;;;;;;;;;;14.70;68.40;;;;;;5085772;28;20417;-80
2021/11/05 10:05:53;;;;;;;0.70;0.25;;;14.70;67.50;;;;;;5086747;28;20354;-79
2021/11/05 10:08:27;;;;;;;0.30;0.20;;;14.70;67.50;;;;;;5085201;28;20552;-79
2021/11/05 10:10:53;;;;;;;2.80;0.30;;;14.70;66.90;;;;;;5086593;28;20503;-77
2021/11/05 10:13:23;;;;;;;;;;;14.90;65.50;;;;;;5085429;28;20056;-78
2021/11/05 10:15:50;;;;;;;0.60;0.20;;;14.90;62.90;;;;;;5086269;28;19915;-78
2021/11/05 10:18:25;;;;;;;2.92;0.20;;;14.90;63.40;;;;;;5086747;28;20072;-77
2021/11/05 10:21:09;;;;;;;0.77;0.30;;;15.00;62.70;;;;;;5085898;28;20036;-78
2021/11/05 10:23:36;;;;;;;1.65;0.60;;;15.30;61.70;;;;;;5086162;28;20020;-77
2021/11/05 10:26:03;;;;;;;1.08;0.57;;;15.30;61.00;;;;;;5086506;28;20032;-77
2021/11/05 10:28:29;;;;;;;1.50;0.40;;;15.40;59.90;;;;;;5085000;28;20029;-78
2021/11/05 10:30:57;;;;;;;1.58;0.85;;;15.50;59.80;;;;;;5086186;28;20077;-77
2021/11/05 10:33:25;;;;;;;3.83;0.73;;;15.50;59.50;;;;;;5084963;28;20032;-79
2021/11/05 10:35:53;;;;;;;0.63;0.40;;;15.50;59.20;;;;;;5085945;28;20058;-78
2021/11/05 10:38:19;;;;;;;4.63;0.50;;;15.40;55.70;;;;;;5086516;28;20028;-80
2021/11/05 10:40:54;;;;;;;1.20;0.40;;;15.30;54.60;;;;;;5086324;28;20072;-78
2021/11/05 10:43:36;;;;;;;4.97;0.80;;;15.30;52.60;;;;;;5087604;28;20028;-78
2021/11/05 10:46:04;;;;;;;0.93;0.30;;;15.30;47.00;;;;;;5086326;28;20048;-81
2021/11/05 10:48:35;;;;;;;0.70;0.22;;;15.30;46.00;;;;;;5084769;28;20024;-77
2021/11/05 10:51:03;;;;;;;0.88;0.35;;;15.30;47.10;;;;;;5085465;28;20028;-78
2021/11/05 10:53:41;;;;;;;1.48;0.63;;;15.20;48.30;;;;;;5084214;28;20047;-79
2021/11/05 10:56:09;;;;;;;3.08;0.70;;;15.30;50.90;;;;;;5088096;28;20134;-79
2021/11/05 10:58:41;;;;;;;3.08;0.90;;;15.20;63.90;;;;;;5088981;28;20024;-78
2021/11/05 11:01:15;;;;;;;1.98;0.73;;;15.20;69.10;;;;;;5089917;28;20085;-80
2021/11/05 11:03:50;;;;;;;9.20;0.73;;;15.00;72.60;;;;;;5089006;28;20034;-79
2021/11/05 11:06:19;;;;;;;1.75;0.52;;;15.00;75.30;;;;;;5088061;28;20400;-78
2021/11/05 11:08:47;;;;;;;4.07;1.50;;;14.90;74.70;;;;;;5088505;28;20035;-78
2021/11/05 11:11:25;;;;;;;1.77;0.50;;;15.00;72.50;;;;;;5090103;28;20036;-79
2021/11/05 11:14:03;;;;;;;1.02;0.50;;;15.10;68.90;;;;;;5089409;28;20036;-80
2021/11/05 11:16:33;;;;;;;1.27;0.47;;;15.20;65.30;;;;;;5088233;28;20032;-79
2021/11/05 11:19:02;;;;;;;0.93;0.40;;;15.30;66.10;;;;;;5088496;28;20036;-82
2021/11/05 11:21:34;;;;;;;0.70;0.30;;;15.20;64.00;;;;;;5089019;28;20540;-78
2021/11/05 11:24:02;;;;;;;0.57;0.30;;;15.10;54.50;;;;;;5088265;28;20028;-78
2021/11/05 11:26:28;;;;;;;1.85;0.50;;;15.20;48.30;;;;;;5088205;28;20047;-80
2021/11/05 11:28:55;;;;;;;1.20;0.50;;;15.30;49.80;;;;;;5088069;28;20036;-80
2021/11/05 11:31:20;;;;;;;1.75;0.70;;;15.40;50.30;;;;;;5088333;28;20032;-78
2021/11/05 11:33:47;;;;;;;1.95;0.30;;;15.50;51.30;;;;;;5089589;28;20042;-79
2021/11/05 11:36:14;;;;;;;2.50;0.32;;;15.50;53.00;;;;;;5088628;28;20158;-79
2021/11/05 11:38:41;;;;;;;0.30;0.20;;;15.60;53.00;;;;;;5087651;28;20031;-79
2021/11/05 11:41:10;;;;;;;1.33;0.20;;;15.70;53.10;;;;;;5089421;28;20165;-78
2021/11/05 11:43:37;;;;;;;0.30;0.20;;;15.70;53.10;;;;;;5087677;28;20046;-79
2021/11/05 11:46:04;;;;;;;0.20;0.20;;;15.70;53.20;;;;;;5089171;28;20496;-78
2021/11/05 11:48:42;;;;;;;0.60;0.30;;;15.60;51.00;;;;;;5088863;28;20471;-78
2021/11/05 11:51:29;;;;;;;1.25;0.40;;;15.60;49.60;;;;;;5088949;28;20032;-78
2021/11/05 11:53:59;;;;;;;1.45;0.40;;;15.60;54.10;;;;;;5087796;28;20035;-80
2021/11/05 11:56:36;;;;;;;1.10;0.40;;;15.60;57.70;;;;;;5088575;28;20020;-78
2021/11/05 11:59:07;;;;;;;1.35;0.30;;;15.50;63.20;;;;;;5089076;28;20789;-80
2021/11/05 12:01:37;;;;;;;2.35;0.40;;;15.40;66.20;;;;;;5088287;28;20028;-78
2021/11/05 12:04:17;;;;;;;6.15;0.50;;;15.10;67.70;;;;;;5087357;28;20396;-78
2021/11/05 12:06:46;;;;;;;0.52;0.35;;;14.90;70.80;;;;;;5082622;28;20146;-76
2021/11/05 12:09:25;;;;;;;1.38;0.55;;;14.80;70.70;;;;;;5088984;28;20028;-78
2021/11/05 12:12:11;;;;;;;1.40;0.40;;;14.90;70.90;;;;;;5088629;28;20028;-80
2021/11/05 12:14:58;;;;;;;2.47;0.40;;;14.80;72.10;;;;;;5087982;28;20063;-78
2021/11/05 12:17:46;;;;;;;0.70;0.30;;;14.90;72.20;;;;;;5087216;28;20054;-79
2021/11/05 12:20:47;;;;;;;0.68;0.30;;;14.90;73.10;;;;;;5087731;28;20399;-75
2021/11/05 12:23:14;;;;;;;5.82;0.73;;;14.90;73.70;;;;;;5028532;28;20048;-78
2021/11/05 12:25:47;;;;;;;3.83;0.40;;;14.90;72.80;;;;;;5079953;28;20427;-78
2021/11/05 12:28:25;;;;;;;1.42;0.50;;;14.80;72.30;;;;;;5088415;28;20024;-80
2021/11/05 12:30:53;;;;;;;1.90;1.35;;;14.70;72.50;;;;;;5088230;28;20131;-77
2021/11/05 12:33:32;;;;;;;0.75;0.40;;;14.60;72.20;;;;;;5086296;28;20028;-79
2021/11/05 12:36:04;;;;;;;2.95;0.50;;;14.50;72.90;;;;;;5087339;28;20040;-77
2021/11/05 12:38:50;;;;;;;1.40;0.50;;;14.50;71.10;;;;;;5086619;28;20498;-77
2021/11/05 12:41:16;;;;;;;1.63;0.50;;;14.50;72.40;;;;;;5086363;28;20024;-78
2021/11/05 12:43:42;;;;;;;;;;;14.30;73.10;;;;;;5086933;28;20028;-79
2021/11/05 12:46:09;;;;;;;2.60;0.50;;;14.20;73.70;;;;;;5086603;28;19904;-79
2021/11/05 12:48:42;;;;;;;0.98;0.38;;;14.10;74.80;;;;;;5087780;28;20243;-77
2021/11/05 12:51:24;;;;;;;3.70;0.80;;;14.20;76.00;;;;;;5086121;28;20070;-78
2021/11/05 12:54:27;;;;;;;10.40;3.80;;;14.20;76.00;;;;;;5088299;28;20036;-80
2021/11/05 12:56:57;;;;;;;3.28;0.80;;;14.40;76.00;;;;;;5086872;28;20055;-78
2021/11/05 12:59:30;;;;;;;1.60;0.63;;;14.70;72.60;;;;;;5087393;28;20027;-79
2021/11/05 13:02:01;;;;;;;3.25;0.60;;;14.70;72.40;;;;;;5087238;28;20023;-78
2021/11/05 13:04:31;;;;;;;0.90;0.40;;;14.60;72.40;;;;;;5085488;28;20031;-77
2021/11/05 13:07:03;;;;;;;1.23;0.45;;;14.40;69.90;;;;;;5086080;28;20491;-79
2021/11/05 13:09:35;;;;;;;1.58;0.30;;;14.30;71.50;;;;;;5087844;28;20514;-78
2021/11/05 13:12:04;;;;;;;0.90;0.40;;;14.20;71.20;;;;;;5083022;28;20717;-78
2021/11/05 13:14:35;;;;;;;0.90;0.50;;;14.20;70.50;;;;;;5085775;28;20036;-78